Time;durP1;ratioP1;P1;durP2;ratioP2;P2;SDS_P1;SDS_P2;PMS_P1;PMS_P2;Temp;Humidity;BMP_temperature;BMP_pressure;BME280_temperature;BME280_humidity;BME280_pressure;Samples;Min_cycle;Max_cycle;Signal;HPM_P1;HPM_P2
2023/04/22 00:00:20;;;;;;;;;;;10.80;78.80;;;-151.14;100.00;62537.16;4937499;29;19922;-85
2023/04/22 00:02:48;;;;;;;;;;;10.80;78.80;;;-151.14;100.00;62537.16;4953043;29;19929;-85
2023/04/22 00:05:17;;;;;;;;;;;10.80;79.00;;;-151.14;100.00;62537.16;4943221;28;19922;-85
2023/04/22 00:07:45;;;;;;;;;;;10.80;78.90;;;-151.14;100.00;62537.16;4956376;28;20217;-85
2023/04/22 00:10:13;;;;;;;;;;;10.80;78.90;;;-151.14;100.00;62537.16;4955742;28;19922;-85
2023/04/22 00:12:41;;;;;;;;;;;10.80;79.00;;;-151.14;100.00;62537.16;4956245;28;19929;-84
2023/04/22 00:15:11;;;;;;;;;;;10.80;79.00;;;-151.14;100.00;62537.16;4955066;28;19922;-84
2023/04/22 00:17:41;;;;;;;;;;;10.80;79.00;;;-151.14;100.00;62537.16;4956020;28;19922;-85
2023/04/22 00:20:10;;;;;;;;;;;10.70;78.90;;;-151.14;100.00;62537.16;4956103;28;19936;-84
2023/04/22 00:22:38;;;;;;;;;;;10.80;78.90;;;-151.14;100.00;62537.16;4972259;28;19922;-85
2023/04/22 00:25:07;;;;;;;;;;;10.70;78.90;;;-151.14;100.00;62537.16;4955221;28;19922;-85
2023/04/22 00:27:35;;;;;;;;;;;10.80;79.10;;;-151.14;100.00;62537.16;4955986;28;19922;-85
2023/04/22 00:30:04;;;;;;;;;;;10.80;79.10;;;-151.14;100.00;62537.16;4939840;28;19929;-86
2023/04/22 00:32:33;;;;;;;;;;;10.80;79.10;;;-151.14;100.00;62537.16;4971970;28;19928;-85
2023/04/22 00:35:01;;;;;;;;;;;10.80;79.10;;;-151.14;100.00;62537.16;4955288;28;19929;-85
2023/04/22 00:37:30;;;;;;;;;;;10.70;79.00;;;-151.14;100.00;62537.16;4971904;28;19922;-85
2023/04/22 00:39:58;;;;;;;;;;;10.70;79.10;;;-151.14;100.00;62537.16;4955850;28;19922;-85
2023/04/22 00:42:26;;;;;;;;;;;10.70;78.90;;;-151.14;100.00;62537.16;4939763;28;19929;-85
2023/04/22 00:44:54;;;;;;;;;;;10.70;78.90;;;-151.14;100.00;62537.16;4939104;28;19926;-85
2023/04/22 00:47:25;;;;;;;;;;;10.70;79.00;;;-151.14;100.00;62537.16;4955735;28;19928;-85
2023/04/22 00:49:55;;;;;;;;;;;10.70;79.00;;;-151.14;100.00;62537.16;4955524;28;20218;-85
2023/04/22 00:52:23;;;;;;;;;;;10.70;79.00;;;-151.14;100.00;62537.16;4939646;28;19922;-85
2023/04/22 00:54:51;;;;;;;;;;;10.70;79.10;;;-151.14;100.00;62537.16;4938897;28;19928;-85
2023/04/22 00:57:19;;;;;;;;;;;10.70;79.10;;;-151.14;100.00;62537.16;4939816;28;20235;-85
2023/04/22 00:59:47;;;;;;;;;;;10.70;78.90;;;-151.14;100.00;62537.16;4971731;28;19929;-85
2023/04/22 01:02:15;;;;;;;;;;;10.70;79.80;;;-151.14;100.00;62537.16;4939748;28;19937;-85
2023/04/22 01:04:43;;;;;;;;;;;10.70;78.90;;;-151.14;100.00;62537.16;4954645;28;20116;-85
2023/04/22 01:07:13;;;;;;;;;;;10.70;78.90;;;-151.14;100.00;62537.16;4939761;28;19922;-85
2023/04/22 01:09:41;;;;;;;;;;;10.70;79.00;;;-151.14;100.00;62537.16;4972548;28;19922;-85
2023/04/22 01:12:09;;;;;;;;;;;10.70;79.00;;;-151.14;100.00;62537.16;4955783;28;20121;-85
2023/04/22 01:14:37;;;;;;;;;;;10.70;79.00;;;-151.14;100.00;62537.16;4935474;29;19923;-85
2023/04/22 01:17:09;;;;;;;;;;;10.70;79.00;;;-151.14;100.00;62537.16;4917333;29;19945;-85
2023/04/22 01:19:37;;;;;;;;;;;10.70;79.00;;;-151.14;100.00;62537.16;4917371;29;19923;-84
2023/04/22 01:22:06;;;;;;;;;;;10.70;79.20;;;-151.14;100.00;62537.16;4933109;29;19923;-85
2023/04/22 01:24:35;;;;;;;;;;;10.70;79.60;;;-151.14;100.00;62537.16;4916474;29;19923;-85
2023/04/22 01:27:04;;;;;;;;;;;10.70;79.40;;;-151.14;100.00;62537.16;4918104;29;19923;-84
2023/04/22 01:29:32;;;;;;;;;;;10.70;79.40;;;-151.14;100.00;62537.16;4937397;29;20453;-85
2023/04/22 01:32:00;;;;;;;;;;;10.70;79.20;;;-151.14;100.00;62537.16;4920472;29;19929;-85
2023/04/22 01:34:30;;;;;;;;;;;10.70;79.20;;;-151.14;100.00;62537.16;4919755;29;20211;-85
2023/04/22 01:36:58;;;;;;;;;;;10.60;79.20;;;-151.14;100.00;62537.16;4920314;29;19930;-85
2023/04/22 01:39:26;;;;;;;;;;;10.60;79.10;;;-151.14;100.00;62537.16;4920262;29;20214;-85
2023/04/22 01:41:57;;;;;;;;;;;10.60;79.00;;;-151.14;100.00;62537.16;4921813;28;19923;-86
2023/04/22 01:44:25;;;;;;;;;;;10.60;79.00;;;-151.14;100.00;62537.16;4957699;28;19922;-85
2023/04/22 01:46:53;;;;;;;;;;;10.60;79.00;;;-151.14;100.00;62537.16;4942546;28;20118;-84
2023/04/22 01:49:22;;;;;;;;;;;10.60;79.00;;;-151.14;100.00;62537.16;4958262;28;20210;-85
2023/04/22 01:51:51;;;;;;;;;;;10.60;78.90;;;-151.14;100.00;62537.16;4958269;28;19922;-85
2023/04/22 01:54:21;;;;;;;;;;;10.60;79.10;;;-151.14;100.00;62537.16;4941754;28;19942;-85
2023/04/22 01:56:52;;;;;;;;;;;10.60;79.00;;;-151.14;100.00;62537.16;4942446;28;19928;-85
2023/04/22 01:59:22;;;;;;;;;;;10.60;79.00;;;-151.14;100.00;62537.16;4940104;29;19928;-85
2023/04/22 02:01:51;;;;;;;;;;;10.60;79.10;;;-151.14;100.00;62537.16;4971178;28;19929;-85
2023/04/22 02:04:19;;;;;;;;;;;10.60;79.20;;;-151.14;100.00;62537.16;4954497;29;19922;-85
2023/04/22 02:06:48;;;;;;;;;;;10.60;79.20;;;-151.14;100.00;62537.16;4954682;29;19923;-84
2023/04/22 02:09:16;;;;;;;;;;;10.60;79.30;;;-151.14;100.00;62537.16;4954844;29;19923;-85
2023/04/22 02:11:44;;;;;;;;;;;10.60;79.10;;;-151.14;100.00;62537.16;4954025;29;20114;-85
2023/04/22 02:14:13;;;;;;;;;;;10.60;78.90;;;-151.14;100.00;62537.16;4953296;29;19922;-85
2023/04/22 02:16:42;;;;;;;;;;;10.60;79.00;;;-151.14;100.00;62537.16;4954605;29;19926;-84
2023/04/22 02:19:11;;;;;;;;;;;10.60;79.10;;;-151.14;100.00;62537.16;4954905;29;19929;-84
2023/04/22 02:21:39;;;;;;;;;;;10.60;79.00;;;-151.14;100.00;62537.16;4938682;29;19923;-85
2023/04/22 02:24:08;;;;;;;;;;;10.60;79.00;;;-151.14;100.00;62537.16;4954177;29;19979;-85
2023/04/22 02:26:36;;;;;;;;;;;10.60;79.00;;;-151.14;100.00;62537.16;4938533;29;19922;-85
2023/04/22 02:29:04;;;;;;;;;;;10.50;79.00;;;-151.14;100.00;62537.16;4954752;29;19929;-85
2023/04/22 02:31:32;;;;;;;;;;;10.50;79.00;;;-151.14;100.00;62537.16;4954338;29;19923;-84
2023/04/22 02:34:02;;;;;;;;;;;10.50;78.90;;;-151.14;100.00;62537.16;4954341;29;19928;-85
2023/04/22 02:36:30;;;;;;;;;;;10.60;79.00;;;-151.14;100.00;62537.16;4954239;29;19922;-85
2023/04/22 02:38:59;;;;;;;;;;;10.50;78.80;;;-151.14;100.00;62537.16;4954307;29;20217;-85
2023/04/22 02:41:28;;;;;;;;;;;10.50;78.90;;;-151.14;100.00;62537.16;4954276;29;19929;-85
2023/04/22 02:43:56;;;;;;;;;;;10.50;79.00;;;-151.14;100.00;62537.16;4954409;29;20153;-84
2023/04/22 02:46:24;;;;;;;;;;;10.50;79.00;;;-151.14;100.00;62537.16;4953756;29;19923;-84
2023/04/22 02:48:52;;;;;;;;;;;10.50;78.70;;;-151.14;100.00;62537.16;4970427;28;19923;-84
2023/04/22 02:51:24;;;;;;;;;;;10.50;78.80;;;-151.14;100.00;62537.16;4953725;29;19922;-85
2023/04/22 02:53:52;;;;;;;;;;;10.50;78.80;;;-151.14;100.00;62537.16;4970275;28;19923;-84
2023/04/22 02:56:20;;;;;;;;;;;10.50;78.80;;;-151.14;100.00;62537.16;4953683;29;19923;-84
2023/04/22 02:58:48;;;;;;;;;;;10.50;78.70;;;-151.14;100.00;62537.16;4954190;29;19929;-84
2023/04/22 03:01:16;;;;;;;;;;;10.50;78.70;;;-151.14;100.00;62537.16;4954074;29;19928;-84
2023/04/22 03:03:45;;;;;;;;;;;10.50;78.70;;;-151.14;100.00;62537.16;4954034;29;20129;-84
2023/04/22 03:06:19;;;;;;;;;;;10.50;78.70;;;-151.14;100.00;62537.16;4937580;29;19923;-83
2023/04/22 03:08:50;;;;;;;;;;;10.50;78.70;;;-151.14;100.00;62537.16;4954007;29;20107;-84
2023/04/22 03:11:18;;;;;;;;;;;10.50;78.80;;;-151.14;100.00;62537.16;4937882;29;20404;-84
2023/04/22 03:13:46;;;;;;;;;;;10.50;78.80;;;-151.14;100.00;62537.16;4938113;29;19937;-84
2023/04/22 03:16:14;;;;;;;;;;;10.50;78.90;;;-151.14;100.00;62537.16;4953239;29;19938;-82
2023/04/22 03:18:43;;;;;;;;;;;10.50;78.80;;;-151.14;100.00;62537.16;4937927;29;19929;-83
2023/04/22 03:21:12;;;;;;;;;;;10.50;78.70;;;-151.14;100.00;62537.16;4953738;29;19929;-84
2023/04/22 03:23:41;;;;;;;;;;;10.50;78.70;;;-151.14;100.00;62537.16;4953870;29;19922;-84
2023/04/22 03:26:12;;;;;;;;;;;10.50;78.80;;;-151.14;100.00;62537.16;4952884;28;19923;-84
2023/04/22 03:28:41;;;;;;;;;;;10.50;78.80;;;-151.14;100.00;62537.16;4969739;28;19928;-84
2023/04/22 03:31:09;;;;;;;;;;;10.40;78.50;;;-151.14;100.00;62537.16;4953696;29;19929;-84
2023/04/22 03:33:37;;;;;;;;;;;10.50;78.80;;;-151.14;100.00;62537.16;4953497;29;19922;-84
2023/04/22 03:36:13;;;;;;;;;;;10.40;78.60;;;-151.14;100.00;62537.16;4918146;29;20236;-84
2023/04/22 03:38:41;;;;;;;;;;;10.40;78.40;;;-151.14;100.00;62537.16;4934438;29;19929;-84
2023/04/22 03:41:10;;;;;;;;;;;10.40;78.60;;;-151.14;100.00;62537.16;4918555;29;19923;-84
2023/04/22 03:43:42;;;;;;;;;;;10.40;78.50;;;-151.14;100.00;62537.16;4918452;29;19923;-84
2023/04/22 03:46:11;;;;;;;;;;;10.40;78.70;;;-151.14;100.00;62537.16;4917982;29;19923;-84
2023/04/22 03:48:47;;;;;;;;;;;10.40;78.60;;;-151.14;100.00;62537.16;4918466;29;19922;-84
2023/04/22 03:51:24;;;;;;;;;;;10.40;78.50;;;-151.14;100.00;62537.16;4933915;29;20117;-84
2023/04/22 03:53:53;;;;;;;;;;;10.40;78.50;;;-151.14;100.00;62537.16;4918560;29;19923;-84
2023/04/22 03:56:25;;;;;;;;;;;10.40;78.50;;;-151.14;100.00;62537.16;4933778;29;19922;-84
2023/04/22 03:58:56;;;;;;;;;;;10.40;78.60;;;-151.14;100.00;62537.16;4918156;29;20121;-84
2023/04/22 04:01:25;;;;;;;;;;;10.40;78.50;;;-151.14;100.00;62537.16;4902677;29;19923;-84
2023/04/22 04:03:57;;;;;;;;;;;10.40;78.30;;;-151.14;100.00;62537.16;4918312;29;19923;-84
2023/04/22 04:06:30;;;;;;;;;;;10.50;78.50;;;-151.14;100.00;62537.16;4918073;29;19953;-83
2023/04/22 04:09:00;;;;;;;;;;;10.50;78.50;;;-151.14;100.00;62537.16;4933940;29;19923;-84
2023/04/22 04:11:30;;;;;;;;;;;10.50;78.40;;;-151.14;100.00;62537.16;4918112;29;20226;-84
2023/04/22 04:14:02;;;;;;;;;;;10.50;78.20;;;-151.14;100.00;62537.16;4928563;29;19926;-84
2023/04/22 04:16:43;;;;;;;;;;;10.50;78.20;;;-151.14;100.00;62537.16;4937083;29;19929;-84
2023/04/22 04:19:17;;;;;;;;;;;10.60;77.90;;;-151.14;100.00;62537.16;4921225;29;19922;-83
2023/04/22 04:21:45;;;;;;;;;;;10.60;77.70;;;-151.14;100.00;62537.16;4954143;29;20118;-83
2023/04/22 04:24:13;;;;;;;;;;;10.60;77.50;;;-151.14;100.00;62537.16;4936236;29;19922;-83
2023/04/22 04:26:48;;;;;;;;;;;10.60;77.20;;;-151.14;100.00;62537.16;4921179;29;19926;-83
2023/04/22 04:29:22;;;;;;;;;;;10.60;77.10;;;-151.14;100.00;62537.16;4921109;29;19929;-84
2023/04/22 04:32:04;;;;;;;;;;;10.70;77.00;;;-151.14;100.00;62537.16;4968880;28;19923;-84
2023/04/22 04:34:33;;;;;;;;;;;10.70;77.10;;;-151.14;100.00;62537.16;4952024;29;19923;-82
2023/04/22 04:37:02;;;;;;;;;;;10.70;77.20;;;-151.14;100.00;62537.16;4968702;28;20129;-83
2023/04/22 04:39:40;;;;;;;;;;;10.70;77.30;;;-151.14;100.00;62537.16;4952627;29;19923;-83
2023/04/22 04:42:13;;;;;;;;;;;10.80;76.90;;;-151.14;100.00;62537.16;4933460;29;20222;-84
2023/04/22 04:44:50;;;;;;;;;;;10.80;76.50;;;-151.14;100.00;62537.16;4917155;29;20214;-83
2023/04/22 04:47:21;;;;;;;;;;;10.80;76.30;;;-151.14;100.00;62537.16;4952447;29;19922;-83
2023/04/22 04:49:52;;;;;;;;;;;10.80;76.30;;;-151.14;100.00;62537.16;4952547;29;19929;-83
2023/04/22 04:52:20;;;;;;;;;;;10.80;76.30;;;-151.14;100.00;62537.16;4952406;29;19922;-83
2023/04/22 04:54:49;;;;;;;;;;;10.90;75.80;;;-151.14;100.00;62537.16;4951808;29;19922;-83
2023/04/22 04:57:18;;;;;;;;;;;10.90;75.40;;;-151.14;100.00;62537.16;4952597;29;19937;-83
2023/04/22 04:59:46;;;;;;;;;;;10.90;75.80;;;-151.14;100.00;62537.16;4936588;29;19923;-83
2023/04/22 05:02:15;;;;;;;;;;;10.90;75.80;;;-151.14;100.00;62537.16;4953680;29;19923;-84
2023/04/22 05:04:43;;;;;;;;;;;10.90;76.10;;;-151.14;100.00;62537.16;4959674;28;19923;-83
2023/04/22 05:07:11;;;;;;;;;;;10.90;76.20;;;-151.14;100.00;62537.16;4978109;28;20121;-83
2023/04/22 05:09:40;;;;;;;;;;;11.00;76.40;;;-151.14;100.00;62537.16;4962339;28;19921;-83
2023/04/22 05:12:09;;;;;;;;;;;11.00;76.20;;;-151.14;100.00;62537.16;4962081;28;19921;-83
2023/04/22 05:14:40;;;;;;;;;;;11.00;76.30;;;-151.14;100.00;62537.16;4993823;28;19921;-83
2023/04/22 05:17:08;;;;;;;;;;;11.10;77.10;;;-151.14;100.00;62537.16;4962203;28;19928;-83
2023/04/22 05:19:36;;;;;;;;;;;11.20;77.30;;;-151.14;100.00;62537.16;4961897;28;19921;-83
2023/04/22 05:22:04;;;;;;;;;;;11.30;77.10;;;-151.14;100.00;62537.16;4978199;28;19930;-83
2023/04/22 05:24:33;;;;;;;;;;;11.40;76.60;;;-151.14;100.00;62537.16;4977440;28;19922;-84
2023/04/22 05:27:01;;;;;;;;;;;11.50;76.20;;;-151.14;100.00;62537.16;4978036;28;19928;-83
2023/04/22 05:29:30;;;;;;;;;;;11.60;75.80;;;-151.14;100.00;62537.16;4961838;28;19922;-83
2023/04/22 05:32:01;;;;;;;;;;;11.70;75.60;;;-151.14;100.00;62537.16;4994086;28;19928;-83
2023/04/22 05:34:30;;;;;;;;;;;11.70;75.60;;;-151.14;100.00;62537.16;4993563;28;19936;-83
2023/04/22 05:36:58;;;;;;;;;;;11.80;75.40;;;-151.14;100.00;62537.16;4977761;28;19928;-83
2023/04/22 05:39:27;;;;;;;;;;;11.80;75.10;;;-151.14;100.00;62537.16;4977912;28;19929;-83
2023/04/22 05:41:57;;;;;;;;;;;11.80;75.00;;;-151.14;100.00;62537.16;4993982;28;19936;-83
2023/04/22 05:44:26;;;;;;;;;;;11.90;75.10;;;-151.14;100.00;62537.16;4976920;28;19922;-83
2023/04/22 05:46:54;;;;;;;;;;;11.90;75.10;;;-151.14;100.00;62537.16;4977606;28;20342;-83
2023/04/22 05:49:24;;;;;;;;;;;11.90;75.10;;;-151.14;100.00;62537.16;4993922;28;19922;-83
2023/04/22 05:52:12;;;;;;;;;;;11.90;75.00;;;-151.14;100.00;62537.16;4970610;28;19922;-83
2023/04/22 05:54:51;;;;;;;;;;;11.90;75.00;;;-151.14;100.00;62537.16;4976858;28;19921;-83
2023/04/22 05:57:19;;;;;;;;;;;11.90;75.10;;;-151.14;100.00;62537.16;4977592;28;19922;-83
2023/04/22 05:59:47;;;;;;;;;;;11.90;75.10;;;-151.14;100.00;62537.16;4977341;28;19922;-83
2023/04/22 06:02:16;;;;;;;;;;;12.00;75.10;;;-151.14;100.00;62537.16;4961455;28;19922;-83
2023/04/22 06:04:45;;;;;;;;;;;11.90;75.10;;;-151.14;100.00;62537.16;4976509;28;19921;-83
2023/04/22 06:07:14;;;;;;;;;;;11.90;75.10;;;-151.14;100.00;62537.16;4977495;28;19922;-84
2023/04/22 06:09:42;;;;;;;;;;;12.00;75.10;;;-151.14;100.00;62537.16;4977307;28;20209;-83
2023/04/22 06:12:10;;;;;;;;;;;12.00;75.10;;;-151.14;100.00;62537.16;4993352;28;20117;-84
2023/04/22 06:14:38;;;;;;;;;;;12.00;75.10;;;-151.14;100.00;62537.16;4992642;28;19922;-83
2023/04/22 06:17:08;;;;;;;;;;;12.00;75.10;;;-151.14;100.00;62537.16;4967498;28;19922;-83
2023/04/22 06:19:36;;;;;;;;;;;12.00;75.10;;;-151.14;100.00;62537.16;4938562;29;19975;-83
2023/04/22 06:22:06;;;;;;;;;;;12.00;75.00;;;-151.14;100.00;62537.16;4938814;29;20210;-83
2023/04/22 06:24:34;;;;;;;;;;;12.00;75.10;;;-151.14;100.00;62537.16;4953898;29;19929;-83
2023/04/22 06:27:03;;;;;;;;;;;12.10;75.10;;;-151.14;100.00;62537.16;4954638;29;19922;-83
2023/04/22 06:29:31;;;;;;;;;;;12.00;75.00;;;-151.14;100.00;62537.16;4922808;29;19929;-83
2023/04/22 06:31:59;;;;;;;;;;;12.10;75.20;;;-151.14;100.00;62537.16;4938520;29;19929;-82
2023/04/22 06:34:27;;;;;;;;;;;12.10;75.20;;;-151.14;100.00;62537.16;4953736;29;19945;-83
2023/04/22 06:36:55;;;;;;;;;;;12.10;75.20;;;-151.14;100.00;62537.16;4938514;29;20121;-83
2023/04/22 06:39:25;;;;;;;;;;;12.10;75.10;;;-151.14;100.00;62537.16;4922588;29;19945;-83
2023/04/22 06:42:17;;;;;;;;;;;12.10;75.10;;;-151.14;100.00;62537.16;4938449;29;20336;-84
2023/04/22 06:45:11;;;;;;;;;;;12.20;75.10;;;-151.14;100.00;62537.16;4954866;28;19929;-83
2023/04/22 06:48:11;;;;;;;;;;;12.20;74.90;;;-151.14;100.00;62537.16;4907227;29;20210;-84
2023/04/22 06:51:02;;;;;;;;;;;12.20;74.90;;;-151.14;100.00;62537.16;4938065;29;19929;-83
2023/04/22 06:53:30;;;;;;;;;;;12.20;74.90;;;-151.14;100.00;62537.16;4922406;29;19922;-83
2023/04/22 06:56:00;;;;;;;;;;;12.20;74.80;;;-151.14;100.00;62537.16;4937538;29;20232;-83
2023/04/22 06:58:28;;;;;;;;;;;12.20;74.80;;;-151.14;100.00;62537.16;4970393;28;20145;-83
2023/04/22 07:00:56;;;;;;;;;;;12.20;74.80;;;-151.14;100.00;62537.16;4938228;29;19923;-82
2023/04/22 07:03:24;;;;;;;;;;;12.20;74.80;;;-151.14;100.00;62537.16;4922347;29;19923;-83
2023/04/22 07:06:01;;;;;;;;;;;12.20;74.80;;;-151.14;100.00;62537.16;4937300;29;20108;-83
2023/04/22 07:08:31;;;;;;;;;;;12.20;74.80;;;-151.14;100.00;62537.16;4922187;29;19922;-83
2023/04/22 07:11:01;;;;;;;;;;;12.10;74.80;;;-151.14;100.00;62537.16;4938120;29;19929;-83
2023/04/22 07:13:38;;;;;;;;;;;12.10;74.70;;;-151.14;100.00;62537.16;4953930;29;19924;-84
2023/04/22 07:16:06;;;;;;;;;;;12.20;74.80;;;-151.14;100.00;62537.16;4953237;29;19922;-83
2023/04/22 07:18:35;;;;;;;;;;;12.20;74.80;;;-151.14;100.00;62537.16;4953918;29;19922;-84
2023/04/22 07:21:03;;;;;;;;;;;12.20;74.90;;;-151.14;100.00;62537.16;4953654;29;19922;-84
2023/04/22 07:23:31;;;;;;;;;;;12.10;75.00;;;-151.14;100.00;62537.16;4955526;28;19922;-83
2023/04/22 07:26:01;;;;;;;;;;;12.10;74.90;;;-151.14;100.00;62537.16;4974467;28;19922;-83
2023/04/22 07:28:29;;;;;;;;;;;12.10;75.00;;;-151.14;100.00;62537.16;4976280;28;19928;-83
2023/04/22 07:30:57;;;;;;;;;;;12.10;75.10;;;-151.14;100.00;62537.16;4976040;28;19957;-83
2023/04/22 07:33:25;;;;;;;;;;;12.10;75.10;;;-151.14;100.00;62537.16;4969053;28;19922;-83
2023/04/22 07:35:53;;;;;;;;;;;12.10;75.10;;;-151.14;100.00;62537.16;4956090;28;19929;-83
2023/04/22 07:38:21;;;;;;;;;;;12.10;75.10;;;-151.14;100.00;62537.16;4956715;28;19922;-83
2023/04/22 07:40:49;;;;;;;;;;;12.10;75.10;;;-151.14;100.00;62537.16;4940686;28;19944;-83
2023/04/22 07:43:19;;;;;;;;;;;12.10;75.10;;;-151.14;100.00;62537.16;4956653;28;20214;-83
2023/04/22 07:45:47;;;;;;;;;;;12.10;75.10;;;-151.14;100.00;62537.16;4971936;28;19922;-83
2023/04/22 07:48:15;;;;;;;;;;;12.10;75.10;;;-151.14;100.00;62537.16;4956656;28;20214;-84
2023/04/22 07:50:43;;;;;;;;;;;12.20;75.10;;;-151.14;100.00;62537.16;4940548;28;19926;-83
2023/04/22 07:53:12;;;;;;;;;;;12.20;75.10;;;-151.14;100.00;62537.16;4956554;28;19922;-83
2023/04/22 07:55:40;;;;;;;;;;;12.10;75.00;;;-151.14;100.00;62537.16;4988033;28;19922;-84
2023/04/22 07:58:08;;;;;;;;;;;12.20;75.00;;;-151.14;100.00;62537.16;4956552;28;19922;-84
2023/04/22 08:00:37;;;;;;;;;;;12.20;74.90;;;-151.14;100.00;62537.16;4988802;28;20209;-84
2023/04/22 08:03:05;;;;;;;;;;;12.20;74.80;;;-151.14;100.00;62537.16;4973573;28;19922;-83
2023/04/22 08:05:33;;;;;;;;;;;12.20;74.90;;;-151.14;100.00;62537.16;4978863;28;19929;-84
2023/04/22 08:08:01;;;;;;;;;;;12.20;75.70;;;-151.14;100.00;62537.16;4937295;29;19923;-83
2023/04/22 08:10:29;;;;;;;;;;;12.20;74.80;;;-151.14;100.00;62537.16;4921348;29;19929;-83
2023/04/22 08:12:58;;;;;;;;;;;12.20;74.80;;;-151.14;100.00;62537.16;4937253;29;19923;-84
2023/04/22 08:15:26;;;;;;;;;;;12.20;74.90;;;-151.14;100.00;62537.16;4968429;28;19923;-83
2023/04/22 08:17:55;;;;;;;;;;;12.20;74.90;;;-151.14;100.00;62537.16;4921558;29;19922;-84
2023/04/22 08:20:24;;;;;;;;;;;12.20;74.80;;;-151.14;100.00;62537.16;4936947;29;20148;-84
2023/04/22 08:22:56;;;;;;;;;;;12.20;74.90;;;-151.14;100.00;62537.16;4937065;29;19938;-84
2023/04/22 08:25:25;;;;;;;;;;;12.20;74.80;;;-151.14;100.00;62537.16;4953416;29;19922;-84
2023/04/22 08:27:53;;;;;;;;;;;12.20;74.80;;;-151.14;100.00;62537.16;4921046;29;20114;-84
2023/04/22 08:30:21;;;;;;;;;;;12.20;74.80;;;-151.14;100.00;62537.16;4952924;29;19923;-84
2023/04/22 08:32:49;;;;;;;;;;;12.20;74.90;;;-151.14;100.00;62537.16;4952775;29;20118;-84
2023/04/22 08:35:19;;;;;;;;;;;12.20;74.80;;;-151.14;100.00;62537.16;4936014;29;19922;-85
2023/04/22 08:37:47;;;;;;;;;;;12.20;75.00;;;-151.14;100.00;62537.16;4936818;29;19937;-84
2023/04/22 08:40:15;;;;;;;;;;;12.20;75.00;;;-151.14;100.00;62537.16;4920931;29;19922;-84
2023/04/22 08:42:44;;;;;;;;;;;12.20;75.00;;;-151.14;100.00;62537.16;4936797;29;19923;-83
2023/04/22 08:45:12;;;;;;;;;;;12.20;75.00;;;-151.14;100.00;62537.16;4951976;29;19923;-84
2023/04/22 08:47:40;;;;;;;;;;;12.20;75.00;;;-151.14;100.00;62537.16;4952600;29;19929;-84
2023/04/22 08:50:09;;;;;;;;;;;12.20;75.10;;;-151.14;100.00;62537.16;4920850;29;19968;-84
2023/04/22 08:52:39;;;;;;;;;;;12.20;75.10;;;-151.14;100.00;62537.16;4920633;29;19928;-83
2023/04/22 08:55:08;;;;;;;;;;;12.20;75.10;;;-151.14;100.00;62537.16;4920202;29;19923;-84
2023/04/22 08:57:36;;;;;;;;;;;12.20;75.20;;;-151.14;100.00;62537.16;4952455;29;20122;-84
2023/04/22 09:00:07;;;;;;;;;;;12.20;75.20;;;-151.14;100.00;62537.16;4936252;29;19922;-84
2023/04/22 09:02:37;;;;;;;;;;;12.20;75.20;;;-151.14;100.00;62537.16;4952200;29;19922;-84
2023/04/22 09:05:06;;;;;;;;;;;12.20;75.20;;;-151.14;100.00;62537.16;4956958;28;19922;-84
2023/04/22 09:07:35;;;;;;;;;;;12.20;75.20;;;-151.14;100.00;62537.16;4971788;28;19922;-84
2023/04/22 09:10:05;;;;;;;;;;;12.10;75.30;;;-151.14;100.00;62537.16;4955405;28;20210;-85
2023/04/22 09:12:33;;;;;;;;;;;12.10;75.40;;;-151.14;100.00;62537.16;4971464;28;19926;-85
2023/04/22 09:15:02;;;;;;;;;;;12.10;75.60;;;-151.14;100.00;62537.16;4954765;28;19922;-85
2023/04/22 09:17:30;;;;;;;;;;;12.00;75.70;;;-151.14;100.00;62537.16;4955289;28;19928;-85
2023/04/22 09:19:59;;;;;;;;;;;12.00;75.90;;;-151.14;100.00;62537.16;4939549;28;20125;-85
2023/04/22 09:22:27;;;;;;;;;;;11.90;76.10;;;-151.14;100.00;62537.16;4955192;28;19928;-85
2023/04/22 09:24:55;;;;;;;;;;;11.90;76.30;;;-151.14;100.00;62537.16;4954734;28;19926;-86
2023/04/22 09:27:25;;;;;;;;;;;11.90;76.40;;;-151.14;100.00;62537.16;4955193;28;20211;-84
2023/04/22 09:29:53;;;;;;;;;;;11.80;76.50;;;-151.14;100.00;62537.16;4939444;28;19923;-84
2023/04/22 09:32:24;;;;;;;;;;;11.80;76.60;;;-151.14;100.00;62537.16;4955053;28;19922;-85
2023/04/22 09:34:52;;;;;;;;;;;11.80;76.70;;;-151.14;100.00;62537.16;4938677;28;20121;-85
2023/04/22 09:37:30;;;;;;;;;;;11.70;76.80;;;-151.14;100.00;62537.16;4972385;28;19922;-85
2023/04/22 09:39:58;;;;;;;;;;;11.70;77.00;;;-151.14;100.00;62537.16;4955456;28;19929;-85
2023/04/22 09:42:28;;;;;;;;;;;11.70;77.00;;;-151.14;100.00;62537.16;4955200;28;19937;-85
2023/04/22 09:44:56;;;;;;;;;;;11.70;77.00;;;-151.14;100.00;62537.16;4954317;28;19928;-85
2023/04/22 09:47:24;;;;;;;;;;;11.70;77.20;;;-151.14;100.00;62537.16;4939234;28;19922;-85
2023/04/22 09:49:52;;;;;;;;;;;11.70;77.20;;;-151.14;100.00;62537.16;4974531;28;20099;-85
2023/04/22 09:52:25;;;;;;;;;;;11.70;77.20;;;-151.14;100.00;62537.16;4942330;28;19922;-85
2023/04/22 09:54:53;;;;;;;;;;;11.70;77.20;;;-151.14;100.00;62537.16;4941773;28;20240;-85
2023/04/22 09:57:24;;;;;;;;;;;11.70;78.00;;;-151.14;100.00;62537.16;4954520;29;20202;-85
2023/04/22 09:59:54;;;;;;;;;;;11.70;77.20;;;-151.14;100.00;62537.16;4923480;29;19922;-85
2023/04/22 10:02:28;;;;;;;;;;;11.70;77.10;;;-151.14;100.00;62537.16;4938958;29;19930;-85
2023/04/22 10:04:57;;;;;;;;;;;11.70;77.00;;;-151.14;100.00;62537.16;4951114;28;19929;-86
2023/04/22 10:07:30;;;;;;;;;;;11.80;77.00;;;-151.14;100.00;62537.16;4935811;29;19923;-86
2023/04/22 10:09:58;;;;;;;;;;;11.80;76.80;;;-151.14;100.00;62537.16;4935877;29;19941;-85
2023/04/22 10:12:26;;;;;;;;;;;11.80;76.70;;;-151.14;100.00;62537.16;4969730;28;19922;-85
2023/04/22 10:14:56;;;;;;;;;;;11.80;76.70;;;-151.14;100.00;62537.16;4953981;28;19933;-85
2023/04/22 10:17:24;;;;;;;;;;;11.80;76.70;;;-151.14;100.00;62537.16;4939031;29;19945;-85
2023/04/22 10:19:55;;;;;;;;;;;11.80;76.70;;;-151.14;100.00;62537.16;4954878;29;19929;-85
2023/04/22 10:22:23;;;;;;;;;;;11.80;76.70;;;-151.14;100.00;62537.16;4954757;29;19922;-85
2023/04/22 10:24:54;;;;;;;;;;;11.80;76.70;;;-151.14;100.00;62537.16;4954158;29;19923;-85
2023/04/22 10:27:22;;;;;;;;;;;11.80;76.70;;;-151.14;100.00;62537.16;4954666;29;20122;-85
2023/04/22 10:29:50;;;;;;;;;;;11.80;76.70;;;-151.14;100.00;62537.16;4938455;29;19945;-86
2023/04/22 10:32:26;;;;;;;;;;;11.80;76.70;;;-151.14;100.00;62537.16;4949447;29;19923;-85
2023/04/22 10:35:08;;;;;;;;;;;11.80;76.70;;;-151.14;100.00;62537.16;4969982;28;20118;-85
2023/04/22 10:37:37;;;;;;;;;;;11.80;76.70;;;-151.14;100.00;62537.16;4954528;29;19922;-85
2023/04/22 10:40:07;;;;;;;;;;;11.80;76.70;;;-151.14;100.00;62537.16;4938638;29;19929;-85
2023/04/22 10:42:36;;;;;;;;;;;11.80;76.70;;;-151.14;100.00;62537.16;4954426;29;20214;-84
2023/04/22 10:45:06;;;;;;;;;;;11.80;76.70;;;-151.14;100.00;62537.16;4953737;29;19922;-85
2023/04/22 10:47:36;;;;;;;;;;;11.80;76.70;;;-151.14;100.00;62537.16;4970507;28;20113;-85
2023/04/22 10:50:11;;;;;;;;;;;11.80;76.80;;;-151.14;100.00;62537.16;4954474;29;19929;-85
2023/04/22 10:52:40;;;;;;;;;;;11.80;76.80;;;-151.14;100.00;62537.16;4954258;29;19922;-86
2023/04/22 10:55:08;;;;;;;;;;;11.80;76.70;;;-151.14;100.00;62537.16;4953580;29;19922;-85
2023/04/22 10:57:39;;;;;;;;;;;11.80;76.80;;;-151.14;100.00;62537.16;4954404;29;19923;-85
2023/04/22 11:00:27;;;;;;;;;;;11.80;76.80;;;-151.14;100.00;62537.16;4954196;29;19928;-86
2023/04/22 11:03:10;;;;;;;;;;;11.80;76.90;;;-151.14;100.00;62537.16;4954169;29;19923;-85
2023/04/22 11:05:38;;;;;;;;;;;11.80;77.00;;;-151.14;100.00;62537.16;4946893;29;19948;-85